Cabanillas del Campo, Spain
Current Conditions -  °F | °C
As of 7:00 PM on Saturday 22 Nov 2014 (Local Time) from LETO Reporting Station
Clear Clear  
Wind Chill: 15°   Ceiling: Unl
Heat Index: 15°   Visibility: 6mi
Dew Point: 11°   Wind: 6mph
Humidity: 77%   Direction: 20°NNE
Pressure: 29.91"   Gusts: NA
Location:  40.63°N, 3.23°W
Report Text: LETO 221800Z 02005KT CAVOK 15/11 Q1013 NOSIG
Loading
Personal Weather Stations






























Interactive Weather Map New forecast layout! Learn more

10-Day Weather Forecast

Advertisements
Track Severe Weather on mobile